Portada
Imágenes satélite Pronóstico 10 díasClimaPredicción Marítima Ciclones Rayo AeropuertosFAQ Noticias Acerca
El tiempo : Europa África América del Norte América del Sur Asia Australia-Oceanía Otros
Idiomas Contacto

Chichén Itzá, México

latitud: 20-38-30N, longitud: 088-26-58W, altitud: 31 m


METAR: MMCT 282245Z 06007KT 8SM SCT015 27/14 A3010 RMK 8/100 MSGTX MMMD
TAF: falta

Hora: 04:17 (10:17 UTC)

Observación

El informe se hizo hace 11 horas y 32 minutos, a las 22:45 UTC
Viento 7 kt del este-noreste
Temperatura 27°C
Humedad 45%
Presión 1019 hPa
Visibilidad: 12.9 km
Nubes dispersas a una altura de 1500 ft

Cambiar las unidades
La información que se ofrece en estas páginas está sujeta a una cláusula de exención de responsabilidad
El tiempo : Europa África América del Norte América del Sur Asia Australia-Oceanía Otros
Imágenes satélite Pronóstico 10 díasClimaPredicción Marítima Ciclones Rayo AeropuertosFAQ Idiomas Contacto Noticias Acerca